• Join FlightAware (Why Join?)
  • Login
  • US Flag 
09:53AM EST


 

Airport Tracker/Info


-or-


 

Live Flight TrackerFlight Track Log ✈ LXJ609 ✈ 09-May-2013 ✈ KTEB - KCKI

Flight Track Log - Related Links

Times and Time Zones

All times are in EDT time to prevent confusion due to time zone crossing. See the LXJ609 flight status page for this flight to view local times or setup timezone preferences in your user account.

Time Position Orientation Groundspeed Altitude Reporting Facility
EDT Latitude Longitude Course Direction KTS MPH feet Rate Location/Type
10:29AM 40.9000 -74.0333 288° West 195 224 2,200  Level New York TRACON
10:30AM 40.9167 -74.1000 288° West 237 273 4,800 1,800 Climbing New York TRACON
10:31AM 40.9000 -74.1833 255° West 269 310 5,800 660 Climbing New York TRACON
10:32AM 40.8500 -74.2500 225° Southwest 286 329 6,200 840 Climbing New York TRACON
10:33AM 40.7667 -74.2500 180° South 281 323 7,500 2,520 Climbing New York TRACON
10:34AM 40.7000 -74.2667 191° South 260 299 11,000 2,820 Climbing New York TRACON
10:36AM 40.5631 -74.4344 223° Southwest 298 343 17,000 1,740 Climbing New York Center
10:37AM 40.4936 -74.3869 153° Southeast 259 298 17,000  Level New York Center
10:38AM 40.4575 -74.2733 113° Southeast 271 312 17,000  Level New York Center
10:39AM 40.3883 -74.2153 147° Southeast 288 331 17,000 660 Level New York Center
10:40AM 40.2897 -74.2375 190° South 321 369 18,400 2,280 Climbing New York Center
10:41AM 40.2003 -74.3092 211° Southwest 348 400 21,700 2,520 Climbing New York Center
10:42AM 40.1103 -74.3914 215° Southwest 370 426 23,400 1,080 Climbing New York Center
10:43AM 40.0200 -74.4761 216° Southwest 394 453 23,900 180 Climbing New York Center
10:46AM 39.8286 -74.6431 214° Southwest 394 453 24,000 120 Climbing Washington Center
10:47AM 39.7375 -74.7253 215° Southwest 394 453 24,300 2,340 Climbing Washington Center
10:48AM 39.6400 -74.8128 215° Southwest 394 453 28,700 2,760 Climbing Washington Center
10:49AM 39.5594 -74.8836 214° Southwest 394 453 29,800 600 Climbing Washington Center
10:50AM 39.4619 -74.9706 215° Southwest 409 471 30,000 60 Climbing Washington Center
10:51AM 39.3622 -75.0600 215° Southwest 435 501 30,000 480 Level Washington Center
10:52AM 39.2542 -75.1333 208° Southwest 440 506 31,000 1,680 Climbing Washington Center
10:53AM 39.1439 -75.1822 199° South 434 499 33,500 2,220 Climbing Washington Center
10:54AM 39.0356 -75.2283 198° South 429 494 35,500 1,980 Climbing Washington Center
10:55AM 38.9275 -75.2714 197° South 424 488 37,400 1,680 Climbing Washington Center
10:56AM 38.8211 -75.3144 198° South 419 482 38,900 1,260 Climbing Washington Center
10:57AM 38.7192 -75.3603 199° South 409 471 40,000 1,020 Climbing Washington Center
10:58AM 38.6192 -75.4189 205° Southwest 397 457 41,000 960 Climbing Washington Center
10:59AM 38.5256 -75.4828 208° Southwest 389 448 42,000 960 Climbing Washington Center
11:00AM 38.4339 -75.5439 208° Southwest 381 438 42,900 480 Climbing Washington Center
11:01AM 38.3378 -75.6050 207° Southwest 381 438 43,000  Climbing Washington Center
11:02AM 38.2294 -75.6817 209° Southwest 391 450 43,000  Level Washington Center
11:03AM 38.1231 -75.7528 208° Southwest 408 470 43,000  Level Washington Center
11:04AM 38.0164 -75.8236 208° Southwest 430 495 43,000  Level Washington Center
11:05AM 37.9078 -75.8997 209° Southwest 436 502 43,000  Level Washington Center
11:06AM 37.7992 -75.9728 208° Southwest 441 507 43,000  Level Washington Center
11:07AM 37.7053 -76.0406 210° Southwest 441 507 43,000  Level Washington Center
11:08AM 37.6006 -76.1133 209° Southwest 441 507 43,000  Level Washington Center
11:09AM 37.4814 -76.1886 207° Southwest 441 507 43,000  Level Washington Center
11:10AM 37.3747 -76.2583 207° Southwest 436 502 43,000  Level Washington Center
11:11AM 37.2678 -76.3306 208° Southwest 431 496 43,000  Level Washington Center
11:12AM 37.1611 -76.3997 207° Southwest 431 496 43,000 -180 Level Washington Center
11:13AM 37.0542 -76.4689 207° Southwest 431 496 42,700 -900 Descending Washington Center
11:14AM 36.9492 -76.5406 209° Southwest 437 503 41,300 -1,500 Descending Washington Center
11:15AM 36.8422 -76.6119 208° Southwest 432 497 39,800 -1,380 Descending Washington Center
11:16AM 36.7375 -76.6806 208° Southwest 437 503 38,600 -960 Descending Washington Center
11:17AM 36.6303 -76.7542 209° Southwest 437 503 38,000 -360 Descending Washington Center
11:18AM 36.5211 -76.8222 207° Southwest 437 503 38,000  Level Washington Center
11:19AM 36.4139 -76.8953 209° Southwest 442 509 38,000  Level Washington Center
11:20AM 36.3025 -76.9631 206° Southwest 442 509 38,000 -360 Level Washington Center
11:21AM 36.1911 -77.0333 207° Southwest 442 509 37,300 -900 Descending Washington Center
11:22AM 36.0797 -77.1058 208° Southwest 442 509 36,300 -720 Descending Washington Center
11:23AM 35.9828 -77.1706 208° Southwest 445 512 36,000 -180 Descending Washington Center
11:24AM 35.8736 -77.2403 207° Southwest 445 512 36,000  Level Washington Center
11:25AM 35.7597 -77.3122 207° Southwest 445 512 36,000  Level Washington Center
11:26AM 35.6525 -77.3814 208° Southwest 445 512 36,000  Level Washington Center
11:27AM 35.5408 -77.4503 207° Southwest 445 512 36,000 -720 Level Washington Center
11:28AM 35.4292 -77.5217 208° Southwest 450 518 34,600 -1,440 Descending Washington Center
11:29AM 35.3336 -77.6136 218° Southwest 455 524 33,200 -1,380 Descending Washington Center
11:30AM 35.2503 -77.7311 229° Southwest 446 513 31,900 -1,380 Descending Washington Center
11:31AM 35.1667 -77.8508 230° Southwest 460 529 30,500 -1,500 Descending Washington Center
11:32AM 35.0850 -77.9678 230° Southwest 465 535 29,000 -1,500 Descending Washington Center
11:33AM 35.0014 -78.0819 228° Southwest 465 535 27,500 -1,560 Descending Washington Center
11:34AM 34.9175 -78.1983 229° Southwest 465 535 26,000 -1,500 Descending Washington Center
11:35AM 34.8292 -78.3222 229° Southwest 458 527 24,600 -1,440 Descending Washington Center
11:36AM 34.7600 -78.4258 231° Southwest 450 518 23,100 -1,920 Descending Washington Center
11:38AM 34.5656 -78.6947 229° Southwest 430 495 18,300 -1,920 Descending Jacksonville Center
11:39AM 34.4919 -78.8017 230° Southwest 419 482 16,800 -1,200 Descending Jacksonville Center
11:40AM 34.4239 -78.8953 229° Southwest 419 482 15,900 -900 Descending Jacksonville Center
11:41AM 34.3539 -78.9917 229° Southwest 407 468 15,100 -1,200 Descending Jacksonville Center
11:42AM 34.2819 -79.0928 229° Southwest 397 457 13,500 -1,500 Descending Jacksonville Center
11:43AM 34.2500 -79.2100 252° West 377 434 12,100 -1,380 Descending Jacksonville Center
11:44AM 34.2178 -79.3242 251° West 371 427 10,800 -1,440 Descending Jacksonville Center
11:45AM 34.1592 -79.3944 225° Southwest 314 361 9,300 -1,500 Descending Jacksonville Center
11:46AM 34.1025 -79.4567 222° Southwest 296 341 7,800 -1,560 Descending Jacksonville Center
11:47AM 34.0458 -79.5167 221° Southwest 284 327 6,200 -1,380 Descending Jacksonville Center
11:48AM 33.9931 -79.5714 221° Southwest 274 315 5,100 -1,080 Descending Jacksonville Center
11:49AM 33.9361 -79.6286 220° Southwest 274 315 4,100 420 Descending Jacksonville Center
11:50AM 33.8750 -79.6933 221° Southwest 274 315 6,000 900 Climbing Jacksonville Center
11:51AM 33.8183 -79.7528 221° Southwest 274 315 6,000  Level Jacksonville Center
11:53AM 33.7167 -79.8500 228° Southwest  Level FlightAware Approximate
12:00PM 33.7172 -79.8570 228° Southwest  Level Estimated
12:01PM 33.7167 -79.8500 228° Southwest  Level FlightAware Approximate
12:02PM 33.7172 -79.8570 228° Southwest  Level Estimated
12:03PM 33.7167 -79.8500 228° Southwest  Level FlightAware Approximate
12:04PM 33.7172 -79.8570 228° Southwest  Level Estimated
12:05PM 33.7167 -79.8500 228° Southwest  Level FlightAware Approximate
12:06PM 33.7172 -79.8570 228° Southwest  Level Estimated
12:07PM 33.7167 -79.8500 228° Southwest  Level FlightAware Approximate
12:08PM 33.7172 -79.8570 228° Southwest  Level Estimated
12:09PM 33.7167 -79.8500 228° Southwest  Level FlightAware Approximate